sensor_id;sensor_type;location;lat;lon;timestamp;pressure;altitude;pressure_sealevel;temperature;humidity
81897;BME280;71360;43.506;1.500;2023-07-31T00:00:00;99244.25;;;27.06;53.79
81897;BME280;71360;43.506;1.500;2023-07-31T00:02:25;99250.78;;;27.05;53.46
81897;BME280;71360;43.506;1.500;2023-07-31T00:04:51;99249.91;;;27.05;53.73
81897;BME280;71360;43.506;1.500;2023-07-31T00:07:16;99250.78;;;27.05;53.18
81897;BME280;71360;43.506;1.500;2023-07-31T00:09:42;99242.72;;;27.04;53.31
81897;BME280;71360;43.506;1.500;2023-07-31T00:12:08;99237.25;;;27.04;53.79
81897;BME280;71360;43.506;1.500;2023-07-31T00:14:33;99237.25;;;27.04;53.89
81897;BME280;71360;43.506;1.500;2023-07-31T00:16:58;99241.84;;;27.03;53.07
81897;BME280;71360;43.506;1.500;2023-07-31T00:19:24;99232.78;;;27.03;53.16
81897;BME280;71360;43.506;1.500;2023-07-31T00:21:49;99235.53;;;27.03;53.35
81897;BME280;71360;43.506;1.500;2023-07-31T00:24:15;99242.88;;;27.02;53.58
81897;BME280;71360;43.506;1.500;2023-07-31T00:26:40;99229.19;;;27.02;53.51
81897;BME280;71360;43.506;1.500;2023-07-31T00:29:06;99230.25;;;27.01;53.12
81897;BME280;71360;43.506;1.500;2023-07-31T00:31:31;99233.81;;;27.02;53.52
81897;BME280;71360;43.506;1.500;2023-07-31T00:33:57;99232.97;;;27.01;53.58
81897;BME280;71360;43.506;1.500;2023-07-31T00:36:22;99233.81;;;27.02;53.03
81897;BME280;71360;43.506;1.500;2023-07-31T00:38:48;99230.25;;;27.01;53.08
81897;BME280;71360;43.506;1.500;2023-07-31T00:41:14;99225.78;;;27.00;53.07
81897;BME280;71360;43.506;1.500;2023-07-31T00:43:39;99232.09;;;27.01;53.25
81897;BME280;71360;43.506;1.500;2023-07-31T00:46:05;99213.09;;;26.99;53.24
81897;BME280;71360;43.506;1.500;2023-07-31T00:48:31;99225.78;;;27.00;53.57
81897;BME280;71360;43.506;1.500;2023-07-31T00:50:57;99225.78;;;27.00;53.70
81897;BME280;71360;43.506;1.500;2023-07-31T00:53:24;99221.31;;;26.99;53.61
81897;BME280;71360;43.506;1.500;2023-07-31T00:55:50;99218.59;;;26.99;53.38
81897;BME280;71360;43.506;1.500;2023-07-31T00:58:16;99218.59;;;26.99;53.21
81897;BME280;71360;43.506;1.500;2023-07-31T01:00:41;99218.59;;;26.99;53.12
81897;BME280;71360;43.506;1.500;2023-07-31T01:03:07;99216.03;;;26.98;53.32
81897;BME280;71360;43.506;1.500;2023-07-31T01:06:05;99218.41;;;27.01;53.62
81897;BME280;71360;43.506;1.500;2023-07-31T01:08:44;99225.09;;;26.98;53.47
81897;BME280;71360;43.506;1.500;2023-07-31T01:11:24;99220.66;;;26.97;53.09
81897;BME280;71360;43.506;1.500;2023-07-31T01:13:51;99215.38;;;26.95;53.17
81897;BME280;71360;43.506;1.500;2023-07-31T01:16:17;99213.66;;;26.94;53.65
81897;BME280;71360;43.506;1.500;2023-07-31T01:18:43;99218.13;;;26.95;53.41
81897;BME280;71360;43.506;1.500;2023-07-31T01:21:31;99213.09;;;26.99;52.88
81897;BME280;71360;43.506;1.500;2023-07-31T01:24:20;99211.75;;;26.95;53.18
81897;BME280;71360;43.506;1.500;2023-07-31T01:26:52;99221.03;;;26.94;53.60
81897;BME280;71360;43.506;1.500;2023-07-31T01:29:29;99224.44;;;26.96;53.54
81897;BME280;71360;43.506;1.500;2023-07-31T01:32:00;99210.94;;;26.94;52.96
81897;BME280;71360;43.506;1.500;2023-07-31T01:34:28;99210.06;;;26.94;53.47
81897;BME280;71360;43.506;1.500;2023-07-31T01:36:54;99207.31;;;26.94;53.04
81897;BME280;71360;43.506;1.500;2023-07-31T01:39:20;99203.72;;;26.93;53.15
81897;BME280;71360;43.506;1.500;2023-07-31T01:41:47;99207.31;;;26.94;53.64
81897;BME280;71360;43.506;1.500;2023-07-31T01:44:12;99205.63;;;26.93;53.53
81897;BME280;71360;43.506;1.500;2023-07-31T01:46:37;99210.06;;;26.94;53.63
81897;BME280;71360;43.506;1.500;2023-07-31T01:49:03;99202.88;;;26.93;53.52
81897;BME280;71360;43.506;1.500;2023-07-31T01:51:30;99210.06;;;26.94;53.34
81897;BME280;71360;43.506;1.500;2023-07-31T01:53:59;99203.72;;;26.93;53.02
81897;BME280;71360;43.506;1.500;2023-07-31T01:56:25;99211.13;;;26.93;53.60
81897;BME280;71360;43.506;1.500;2023-07-31T01:58:50;99211.13;;;26.93;52.86
81897;BME280;71360;43.506;1.500;2023-07-31T02:01:16;99209.41;;;26.92;53.18
81897;BME280;71360;43.506;1.500;2023-07-31T02:03:41;99198.44;;;26.92;53.11
81897;BME280;71360;43.506;1.500;2023-07-31T02:06:07;99200.34;;;26.91;52.89
81897;BME280;71360;43.506;1.500;2023-07-31T02:08:32;99192.75;;;26.93;52.94
81897;BME280;71360;43.506;1.500;2023-07-31T02:10:58;99198.44;;;26.92;52.82
81897;BME280;71360;43.506;1.500;2023-07-31T02:13:23;99188.50;;;26.91;53.50
81897;BME280;71360;43.506;1.500;2023-07-31T02:15:49;99193.97;;;26.91;52.80
81897;BME280;71360;43.506;1.500;2023-07-31T02:18:15;99182.16;;;26.90;53.35
81897;BME280;71360;43.506;1.500;2023-07-31T02:20:41;99183.00;;;26.91;52.93
81897;BME280;71360;43.506;1.500;2023-07-31T02:23:06;99181.28;;;26.90;53.44
81897;BME280;71360;43.506;1.500;2023-07-31T02:25:32;99185.75;;;26.91;52.82
81897;BME280;71360;43.506;1.500;2023-07-31T02:27:57;99178.56;;;26.90;53.19
81897;BME280;71360;43.506;1.500;2023-07-31T02:30:23;99184.03;;;26.90;53.40
81897;BME280;71360;43.506;1.500;2023-07-31T02:32:48;99184.03;;;26.90;52.87
81897;BME280;71360;43.506;1.500;2023-07-31T02:35:14;99181.28;;;26.90;53.62
81897;BME280;71360;43.506;1.500;2023-07-31T02:37:41;99180.44;;;26.89;53.56
81897;BME280;71360;43.506;1.500;2023-07-31T02:40:07;99182.34;;;26.89;53.44
81897;BME280;71360;43.506;1.500;2023-07-31T02:42:33;99173.25;;;26.88;53.54
81897;BME280;71360;43.506;1.500;2023-07-31T02:44:58;99179.63;;;26.89;52.75
81897;BME280;71360;43.506;1.500;2023-07-31T02:47:24;99177.91;;;26.88;53.52
81897;BME280;71360;43.506;1.500;2023-07-31T02:49:49;99172.41;;;26.88;53.04
81897;BME280;71360;43.506;1.500;2023-07-31T02:52:15;99162.47;;;26.87;53.32
81897;BME280;71360;43.506;1.500;2023-07-31T02:54:40;99166.06;;;26.87;53.40
81897;BME280;71360;43.506;1.500;2023-07-31T02:57:06;99165.22;;;26.87;52.83
81897;BME280;71360;43.506;1.500;2023-07-31T02:59:31;99159.75;;;26.87;52.85
81897;BME280;71360;43.506;1.500;2023-07-31T03:01:56;99152.53;;;26.86;53.48
81897;BME280;71360;43.506;1.500;2023-07-31T03:04:22;99162.47;;;26.87;53.53
81897;BME280;71360;43.506;1.500;2023-07-31T03:06:47;99155.28;;;26.86;52.82
81897;BME280;71360;43.506;1.500;2023-07-31T03:09:13;99155.28;;;26.86;53.56
81897;BME280;71360;43.506;1.500;2023-07-31T03:11:38;99153.41;;;26.86;53.00
81897;BME280;71360;43.506;1.500;2023-07-31T03:14:04;99154.44;;;26.85;53.55
81897;BME280;71360;43.506;1.500;2023-07-31T03:16:29;99162.66;;;26.85;53.42
81897;BME280;71360;43.506;1.500;2023-07-31T03:18:55;99156.34;;;26.85;53.03
81897;BME280;71360;43.506;1.500;2023-07-31T03:21:20;99161.84;;;26.85;52.92
81897;BME280;71360;43.506;1.500;2023-07-31T03:23:45;99160.97;;;26.84;52.79
81897;BME280;71360;43.506;1.500;2023-07-31T03:26:11;99157.38;;;26.84;53.45
81897;BME280;71360;43.506;1.500;2023-07-31T03:28:36;99160.13;;;26.84;53.55
81897;BME280;71360;43.506;1.500;2023-07-31T03:31:02;99164.72;;;26.83;53.10
81897;BME280;71360;43.506;1.500;2023-07-31T03:33:27;99165.59;;;26.84;52.80
81897;BME280;71360;43.506;1.500;2023-07-31T03:35:53;99157.38;;;26.84;53.43
81897;BME280;71360;43.506;1.500;2023-07-31T03:38:19;99162.84;;;26.84;53.43
81897;BME280;71360;43.506;1.500;2023-07-31T03:40:45;99151.22;;;26.82;53.24
81897;BME280;71360;43.506;1.500;2023-07-31T03:43:11;99160.31;;;26.82;52.89
81897;BME280;71360;43.506;1.500;2023-07-31T03:45:36;99158.41;;;26.83;52.90
81897;BME280;71360;43.506;1.500;2023-07-31T03:48:03;99155.66;;;26.83;53.05
81897;BME280;71360;43.506;1.500;2023-07-31T03:50:28;99156.69;;;26.82;52.79
81897;BME280;71360;43.506;1.500;2023-07-31T03:52:54;99159.44;;;26.82;53.45
81897;BME280;71360;43.506;1.500;2023-07-31T03:55:19;99160.50;;;26.81;53.52
81897;BME280;71360;43.506;1.500;2023-07-31T03:57:45;99159.44;;;26.82;52.92
81897;BME280;71360;43.506;1.500;2023-07-31T04:00:11;99158.59;;;26.81;53.11
81897;BME280;71360;43.506;1.500;2023-07-31T04:02:36;99165.97;;;26.81;52.67
81897;BME280;71360;43.506;1.500;2023-07-31T04:05:02;99167.84;;;26.80;53.19
81897;BME280;71360;43.506;1.500;2023-07-31T04:07:27;99162.38;;;26.80;53.47
81897;BME280;71360;43.506;1.500;2023-07-31T04:09:53;99168.88;;;26.79;53.38
81897;BME280;71360;43.506;1.500;2023-07-31T04:12:18;99168.88;;;26.79;53.29
81897;BME280;71360;43.506;1.500;2023-07-31T04:14:43;99172.69;;;26.78;52.80
81897;BME280;71360;43.506;1.500;2023-07-31T04:17:09;99175.22;;;26.79;53.47
81897;BME280;71360;43.506;1.500;2023-07-31T04:19:34;99176.25;;;26.78;53.38
81897;BME280;71360;43.506;1.500;2023-07-31T04:22:00;99174.56;;;26.77;53.14
81897;BME280;71360;43.506;1.500;2023-07-31T04:24:25;99174.56;;;26.77;53.57
81897;BME280;71360;43.506;1.500;2023-07-31T04:26:51;99174.75;;;26.76;53.49
81897;BME280;71360;43.506;1.500;2023-07-31T04:29:17;99174.56;;;26.77;52.80
81897;BME280;71360;43.506;1.500;2023-07-31T04:31:43;99176.44;;;26.77;52.93
81897;BME280;71360;43.506;1.500;2023-07-31T04:34:08;99168.41;;;26.75;53.02
81897;BME280;71360;43.506;1.500;2023-07-31T04:36:34;99169.25;;;26.76;53.39
81897;BME280;71360;43.506;1.500;2023-07-31T04:39:00;99175.75;;;26.75;52.82
81897;BME280;71360;43.506;1.500;2023-07-31T04:41:26;99178.34;;;26.76;53.38
81897;BME280;71360;43.506;1.500;2023-07-31T04:43:51;99174.75;;;26.76;53.25
81897;BME280;71360;43.506;1.500;2023-07-31T04:46:17;99182.13;;;26.75;53.26
81897;BME280;71360;43.506;1.500;2023-07-31T04:48:43;99189.47;;;26.75;52.83
81897;BME280;71360;43.506;1.500;2023-07-31T04:51:08;99194.13;;;26.74;53.26
81897;BME280;71360;43.506;1.500;2023-07-31T04:53:34;99192.22;;;26.75;52.76
81897;BME280;71360;43.506;1.500;2023-07-31T04:56:00;99206.09;;;26.73;52.63
81897;BME280;71360;43.506;1.500;2023-07-31T04:58:25;99206.09;;;26.73;53.33
81897;BME280;71360;43.506;1.500;2023-07-31T05:00:51;99208.84;;;26.73;52.56
81897;BME280;71360;43.506;1.500;2023-07-31T05:03:16;99208.84;;;26.73;53.09
81897;BME280;71360;43.506;1.500;2023-07-31T05:05:42;99208.00;;;26.73;53.34
81897;BME280;71360;43.506;1.500;2023-07-31T05:08:07;99212.66;;;26.72;52.52
81897;BME280;71360;43.506;1.500;2023-07-31T05:10:33;99212.66;;;26.72;52.77
81897;BME280;71360;43.506;1.500;2023-07-31T05:12:58;99210.94;;;26.71;52.75
81897;BME280;71360;43.506;1.500;2023-07-31T05:15:23;99210.94;;;26.71;53.19
81897;BME280;71360;43.506;1.500;2023-07-31T05:17:49;99220.88;;;26.72;53.10
81897;BME280;71360;43.506;1.500;2023-07-31T05:20:14;99210.94;;;26.71;52.89
81897;BME280;71360;43.506;1.500;2023-07-31T05:22:40;99204.59;;;26.71;52.73
81897;BME280;71360;43.506;1.500;2023-07-31T05:25:06;99216.41;;;26.71;53.41
81897;BME280;71360;43.506;1.500;2023-07-31T05:27:32;99216.41;;;26.71;52.65
81897;BME280;71360;43.506;1.500;2023-07-31T05:29:58;99213.69;;;26.71;53.31
81897;BME280;71360;43.506;1.500;2023-07-31T05:32:23;99216.41;;;26.71;53.44
81897;BME280;71360;43.506;1.500;2023-07-31T05:34:53;99209.22;;;26.70;52.74
81897;BME280;71360;43.506;1.500;2023-07-31T05:37:19;99214.72;;;26.70;53.18
81897;BME280;71360;43.506;1.500;2023-07-31T05:39:45;99213.84;;;26.70;52.97
81897;BME280;71360;43.506;1.500;2023-07-31T05:42:10;99220.19;;;26.70;53.05
81897;BME280;71360;43.506;1.500;2023-07-31T05:44:35;99218.44;;;26.69;53.47
81897;BME280;71360;43.506;1.500;2023-07-31T05:47:01;99213.84;;;26.70;53.06
81897;BME280;71360;43.506;1.500;2023-07-31T05:49:26;99211.09;;;26.70;53.02
81897;BME280;71360;43.506;1.500;2023-07-31T05:51:52;99214.72;;;26.70;53.66
81897;BME280;71360;43.506;1.500;2023-07-31T05:54:17;99219.31;;;26.70;53.16
81897;BME280;71360;43.506;1.500;2023-07-31T05:56:43;99212.97;;;26.69;53.30
81897;BME280;71360;43.506;1.500;2023-07-31T05:59:09;99222.06;;;26.70;52.96
81897;BME280;71360;43.506;1.500;2023-07-31T06:01:35;99222.94;;;26.70;53.19
81897;BME280;71360;43.506;1.500;2023-07-31T06:04:01;99220.19;;;26.70;52.90
81897;BME280;71360;43.506;1.500;2023-07-31T06:06:28;99224.78;;;26.70;53.21
81897;BME280;71360;43.506;1.500;2023-07-31T06:08:54;99223.94;;;26.69;53.48
81897;BME280;71360;43.506;1.500;2023-07-31T06:11:20;99223.09;;;26.69;53.18
81897;BME280;71360;43.506;1.500;2023-07-31T06:13:46;99226.66;;;26.69;53.20
81897;BME280;71360;43.506;1.500;2023-07-31T06:16:13;99220.34;;;26.69;52.96
81897;BME280;71360;43.506;1.500;2023-07-31T06:18:39;99221.19;;;26.69;53.24
81897;BME280;71360;43.506;1.500;2023-07-31T06:21:05;99226.66;;;26.69;53.05
81897;BME280;71360;43.506;1.500;2023-07-31T06:23:30;99223.09;;;26.69;53.24
81897;BME280;71360;43.506;1.500;2023-07-31T06:25:56;99226.66;;;26.69;53.70
81897;BME280;71360;43.506;1.500;2023-07-31T06:28:27;99223.94;;;26.69;53.19
81897;BME280;71360;43.506;1.500;2023-07-31T06:30:54;99224.13;;;26.68;53.14
81897;BME280;71360;43.506;1.500;2023-07-31T06:33:19;99223.94;;;26.69;53.20
81897;BME280;71360;43.506;1.500;2023-07-31T06:35:45;99226.00;;;26.67;52.51
81897;BME280;71360;43.506;1.500;2023-07-31T06:38:11;99228.75;;;26.67;52.56
81897;BME280;71360;43.506;1.500;2023-07-31T06:40:36;99220.53;;;26.67;53.16
81897;BME280;71360;43.506;1.500;2023-07-31T06:43:01;99220.53;;;26.67;52.62
81897;BME280;71360;43.506;1.500;2023-07-31T06:45:34;99217.09;;;26.65;53.00
81897;BME280;71360;43.506;1.500;2023-07-31T06:48:00;99218.13;;;26.64;52.03
81897;BME280;71360;43.506;1.500;2023-07-31T06:50:27;99224.47;;;26.65;52.85
81897;BME280;71360;43.506;1.500;2023-07-31T06:52:53;99223.63;;;26.64;52.77
81897;BME280;71360;43.506;1.500;2023-07-31T06:55:20;99226.34;;;26.64;52.68
81897;BME280;71360;43.506;1.500;2023-07-31T06:57:48;99225.50;;;26.63;52.52
81897;BME280;71360;43.506;1.500;2023-07-31T07:00:14;99218.31;;;26.62;52.14
81897;BME280;71360;43.506;1.500;2023-07-31T07:02:39;99222.97;;;26.62;52.00
81897;BME280;71360;43.506;1.500;2023-07-31T07:05:06;99224.84;;;26.61;52.50
81897;BME280;71360;43.506;1.500;2023-07-31T07:07:32;99227.59;;;26.61;51.92
81897;BME280;71360;43.506;1.500;2023-07-31T07:09:57;99230.50;;;26.60;51.90
81897;BME280;71360;43.506;1.500;2023-07-31T07:12:25;99231.38;;;26.60;52.52
81897;BME280;71360;43.506;1.500;2023-07-31T07:14:50;99229.66;;;26.59;52.44
81897;BME280;71360;43.506;1.500;2023-07-31T07:17:21;99224.16;;;26.59;52.62
81897;BME280;71360;43.506;1.500;2023-07-31T07:19:47;99223.34;;;26.59;51.79
81897;BME280;71360;43.506;1.500;2023-07-31T07:22:13;99223.34;;;26.59;51.99
81897;BME280;71360;43.506;1.500;2023-07-31T07:24:39;99221.63;;;26.58;52.81
81897;BME280;71360;43.506;1.500;2023-07-31T07:27:04;99222.47;;;26.58;51.99
81897;BME280;71360;43.506;1.500;2023-07-31T07:29:30;99220.78;;;26.57;52.26
81897;BME280;71360;43.506;1.500;2023-07-31T07:31:55;99218.88;;;26.58;51.97
81897;BME280;71360;43.506;1.500;2023-07-31T07:34:26;99216.13;;;26.58;52.26
81897;BME280;71360;43.506;1.500;2023-07-31T07:36:52;99216.31;;;26.56;52.54
81897;BME280;71360;43.506;1.500;2023-07-31T07:39:18;99216.13;;;26.58;52.20
81897;BME280;71360;43.506;1.500;2023-07-31T07:41:44;99218.88;;;26.58;52.88
81897;BME280;71360;43.506;1.500;2023-07-31T07:44:09;99221.63;;;26.58;52.73
81897;BME280;71360;43.506;1.500;2023-07-31T07:46:35;99216.97;;;26.58;52.16
81897;BME280;71360;43.506;1.500;2023-07-31T07:49:00;99210.66;;;26.58;52.52
81897;BME280;71360;43.506;1.500;2023-07-31T07:51:26;99210.66;;;26.58;52.63
81897;BME280;71360;43.506;1.500;2023-07-31T07:53:51;99214.22;;;26.58;52.42
81897;BME280;71360;43.506;1.500;2023-07-31T07:56:17;99215.28;;;26.57;52.54
81897;BME280;71360;43.506;1.500;2023-07-31T07:58:42;99207.06;;;26.57;52.94
81897;BME280;71360;43.506;1.500;2023-07-31T08:01:08;99210.66;;;26.58;52.33
81897;BME280;71360;43.506;1.500;2023-07-31T08:03:33;99197.97;;;26.57;52.35
81897;BME280;71360;43.506;1.500;2023-07-31T08:06:00;99203.47;;;26.57;52.97
81897;BME280;71360;43.506;1.500;2023-07-31T08:08:25;99200.72;;;26.57;52.71
81897;BME280;71360;43.506;1.500;2023-07-31T08:10:50;99193.38;;;26.57;52.40
81897;BME280;71360;43.506;1.500;2023-07-31T08:13:16;99193.38;;;26.57;53.01
81897;BME280;71360;43.506;1.500;2023-07-31T08:15:41;99199.69;;;26.58;53.05
81897;BME280;71360;43.506;1.500;2023-07-31T08:18:08;99193.38;;;26.57;52.29
81897;BME280;71360;43.506;1.500;2023-07-31T08:20:34;99191.66;;;26.56;53.28
81897;BME280;71360;43.506;1.500;2023-07-31T08:26:23;99190.78;;;26.56;53.15
81897;BME280;71360;43.506;1.500;2023-07-31T08:28:55;99198.16;;;26.55;52.91
81897;BME280;71360;43.506;1.500;2023-07-31T08:31:23;99189.09;;;26.55;52.45
81897;BME280;71360;43.506;1.500;2023-07-31T08:33:49;99188.03;;;26.56;53.08
81897;BME280;71360;43.506;1.500;2023-07-31T08:36:15;99180.69;;;26.56;52.69
81897;BME280;71360;43.506;1.500;2023-07-31T08:39:45;99178.59;;;26.58;52.58
81897;BME280;71360;43.506;1.500;2023-07-31T08:42:17;99176.25;;;26.55;53.51
81897;BME280;71360;43.506;1.500;2023-07-31T08:44:43;99178.13;;;26.55;52.62
81897;BME280;71360;43.506;1.500;2023-07-31T08:47:10;99181.72;;;26.55;53.02
81897;BME280;71360;43.506;1.500;2023-07-31T08:49:37;99179.81;;;26.56;53.26
81897;BME280;71360;43.506;1.500;2023-07-31T08:52:07;99169.72;;;26.56;53.08
81897;BME280;71360;43.506;1.500;2023-07-31T08:54:43;99172.28;;;26.58;52.73
81897;BME280;71360;43.506;1.500;2023-07-31T08:57:21;99168.84;;;26.56;53.19
81897;BME280;71360;43.506;1.500;2023-07-31T09:00:01;99162.16;;;26.58;52.93
81897;BME280;71360;43.506;1.500;2023-07-31T09:02:34;99160.47;;;26.57;53.35
81897;BME280;71360;43.506;1.500;2023-07-31T09:05:07;99155.00;;;26.57;53.39
81897;BME280;71360;43.506;1.500;2023-07-31T09:07:37;99160.47;;;26.57;53.53
81897;BME280;71360;43.506;1.500;2023-07-31T09:10:04;99158.78;;;26.56;53.35
81897;BME280;71360;43.506;1.500;2023-07-31T09:12:39;99151.19;;;26.58;53.25
81897;BME280;71360;43.506;1.500;2023-07-31T09:15:06;99155.84;;;26.58;52.85
81897;BME280;71360;43.506;1.500;2023-07-31T09:17:37;99150.38;;;26.58;53.36
81897;BME280;71360;43.506;1.500;2023-07-31T09:20:17;99148.28;;;26.60;53.11
81897;BME280;71360;43.506;1.500;2023-07-31T09:22:44;99155.84;;;26.58;53.63
81897;BME280;71360;43.506;1.500;2023-07-31T09:25:26;99148.28;;;26.60;53.47
81897;BME280;71360;43.506;1.500;2023-07-31T09:28:00;99143.84;;;26.59;53.44
81897;BME280;71360;43.506;1.500;2023-07-31T09:30:26;99141.13;;;26.59;53.89
81897;BME280;71360;43.506;1.500;2023-07-31T09:33:01;99143.47;;;26.62;53.84
81897;BME280;71360;43.506;1.500;2023-07-31T09:35:32;99139.03;;;26.61;54.52
81897;BME280;71360;43.506;1.500;2023-07-31T09:38:05;99138.19;;;26.60;54.33
81897;BME280;71360;43.506;1.500;2023-07-31T09:40:37;99138.00;;;26.62;53.93
81897;BME280;71360;43.506;1.500;2023-07-31T09:43:07;99130.63;;;26.62;54.63
81897;BME280;71360;43.506;1.500;2023-07-31T09:45:39;99137.81;;;26.63;54.17
81897;BME280;71360;43.506;1.500;2023-07-31T09:48:09;99129.59;;;26.63;53.77
81897;BME280;71360;43.506;1.500;2023-07-31T09:50:37;99126.84;;;26.63;54.02
81897;BME280;71360;43.506;1.500;2023-07-31T09:53:03;99127.88;;;26.62;54.29
81897;BME280;71360;43.506;1.500;2023-07-31T09:55:29;99128.75;;;26.63;53.59
81897;BME280;71360;43.506;1.500;2023-07-31T09:57:57;99125.13;;;26.62;53.36
81897;BME280;71360;43.506;1.500;2023-07-31T10:00:23;99120.53;;;26.63;53.29
81897;BME280;71360;43.506;1.500;2023-07-31T10:02:50;99126.00;;;26.63;53.71
81897;BME280;71360;43.506;1.500;2023-07-31T10:05:20;99116.06;;;26.62;54.06
81897;BME280;71360;43.506;1.500;2023-07-31T10:07:54;99114.84;;;26.65;53.66
81897;BME280;71360;43.506;1.500;2023-07-31T10:10:24;99119.47;;;26.64;53.44
81897;BME280;71360;43.506;1.500;2023-07-31T10:12:51;99120.53;;;26.63;53.97
81897;BME280;71360;43.506;1.500;2023-07-31T10:15:17;99116.91;;;26.62;54.31
81897;BME280;71360;43.506;1.500;2023-07-31T10:17:43;99112.31;;;26.63;54.15
81897;BME280;71360;43.506;1.500;2023-07-31T10:20:09;99115.88;;;26.63;53.74
81897;BME280;71360;43.506;1.500;2023-07-31T10:22:36;99116.72;;;26.64;53.49
81897;BME280;71360;43.506;1.500;2023-07-31T10:25:02;99113.13;;;26.63;53.54
81897;BME280;71360;43.506;1.500;2023-07-31T10:27:27;99109.56;;;26.63;54.03
81897;BME280;71360;43.506;1.500;2023-07-31T10:29:55;99110.41;;;26.63;53.83
81897;BME280;71360;43.506;1.500;2023-07-31T10:32:22;99112.31;;;26.63;54.06
81897;BME280;71360;43.506;1.500;2023-07-31T10:34:50;99110.41;;;26.63;53.34
81897;BME280;71360;43.506;1.500;2023-07-31T10:37:23;99104.91;;;26.63;53.90
81897;BME280;71360;43.506;1.500;2023-07-31T10:40:05;99107.47;;;26.65;53.64
81897;BME280;71360;43.506;1.500;2023-07-31T10:42:34;99103.22;;;26.62;53.89
81897;BME280;71360;43.506;1.500;2023-07-31T10:45:04;99104.91;;;26.63;53.36
81897;BME280;71360;43.506;1.500;2023-07-31T10:47:31;99104.91;;;26.63;53.61
81897;BME280;71360;43.506;1.500;2023-07-31T10:52:53;99103.00;;;26.64;53.67
81897;BME280;71360;43.506;1.500;2023-07-31T10:55:40;99106.63;;;26.65;53.76
81897;BME280;71360;43.506;1.500;2023-07-31T10:58:11;99094.97;;;26.62;53.42
81897;BME280;71360;43.506;1.500;2023-07-31T11:00:41;99093.13;;;26.63;53.89
81897;BME280;71360;43.506;1.500;2023-07-31T11:03:17;99089.31;;;26.64;53.40
81897;BME280;71360;43.506;1.500;2023-07-31T11:05:49;99088.47;;;26.63;54.00
81897;BME280;71360;43.506;1.500;2023-07-31T11:08:16;99082.16;;;26.63;53.87
81897;BME280;71360;43.506;1.500;2023-07-31T11:10:43;99084.69;;;26.65;53.80
81897;BME280;71360;43.506;1.500;2023-07-31T11:13:09;99078.34;;;26.64;54.23
81897;BME280;71360;43.506;1.500;2023-07-31T11:15:34;99080.94;;;26.66;53.66
81897;BME280;71360;43.506;1.500;2023-07-31T11:18:00;99085.53;;;26.65;53.71
81897;BME280;71360;43.506;1.500;2023-07-31T11:20:35;99082.81;;;26.65;54.01
81897;BME280;71360;43.506;1.500;2023-07-31T11:23:02;99078.19;;;26.66;53.90
81897;BME280;71360;43.506;1.500;2023-07-31T11:25:31;99082.81;;;26.65;53.95
81897;BME280;71360;43.506;1.500;2023-07-31T11:28:04;99080.06;;;26.65;54.09
81897;BME280;71360;43.506;1.500;2023-07-31T11:30:29;99075.44;;;26.66;54.43
81897;BME280;71360;43.506;1.500;2023-07-31T11:32:55;99068.91;;;26.67;53.99
81897;BME280;71360;43.506;1.500;2023-07-31T11:35:21;99067.22;;;26.66;54.00
81897;BME280;71360;43.506;1.500;2023-07-31T11:37:47;99058.81;;;26.67;53.79
81897;BME280;71360;43.506;1.500;2023-07-31T11:40:14;99050.59;;;26.67;54.42
81897;BME280;71360;43.506;1.500;2023-07-31T11:42:40;99056.06;;;26.67;54.76
81897;BME280;71360;43.506;1.500;2023-07-31T11:45:07;99054.16;;;26.68;54.10
81897;BME280;71360;43.506;1.500;2023-07-31T11:47:34;99050.59;;;26.67;53.91
81897;BME280;71360;43.506;1.500;2023-07-31T11:50:01;99045.13;;;26.67;54.68
81897;BME280;71360;43.506;1.500;2023-07-31T11:52:29;99044.91;;;26.69;54.69
81897;BME280;71360;43.506;1.500;2023-07-31T11:54:56;99038.56;;;26.68;54.57
81897;BME280;71360;43.506;1.500;2023-07-31T11:57:22;99038.56;;;26.68;54.31
81897;BME280;71360;43.506;1.500;2023-07-31T11:59:49;99039.44;;;26.69;53.74
81897;BME280;71360;43.506;1.500;2023-07-31T12:02:17;99030.34;;;26.68;53.73
81897;BME280;71360;43.506;1.500;2023-07-31T12:04:43;99033.09;;;26.68;54.54
81897;BME280;71360;43.506;1.500;2023-07-31T12:07:09;99024.88;;;26.68;54.19
81897;BME280;71360;43.506;1.500;2023-07-31T12:09:34;99028.47;;;26.69;54.25
81897;BME280;71360;43.506;1.500;2023-07-31T12:12:00;99026.56;;;26.69;54.34
81897;BME280;71360;43.506;1.500;2023-07-31T12:14:27;99026.56;;;26.69;54.12
81897;BME280;71360;43.506;1.500;2023-07-31T12:16:58;99023.00;;;26.69;53.80
81897;BME280;71360;43.506;1.500;2023-07-31T12:19:25;99025.72;;;26.69;53.88
81897;BME280;71360;43.506;1.500;2023-07-31T12:21:55;99021.09;;;26.69;54.20
81897;BME280;71360;43.506;1.500;2023-07-31T12:24:21;99015.63;;;26.69;53.91
81897;BME280;71360;43.506;1.500;2023-07-31T12:26:48;99016.47;;;26.70;53.60
81897;BME280;71360;43.506;1.500;2023-07-31T12:29:13;99010.13;;;26.69;53.94
81897;BME280;71360;43.506;1.500;2023-07-31T12:31:41;99013.75;;;26.70;54.28
81897;BME280;71360;43.506;1.500;2023-07-31T12:34:19;99001.75;;;26.71;54.25
81897;BME280;71360;43.506;1.500;2023-07-31T12:36:46;98999.16;;;26.69;53.77
81897;BME280;71360;43.506;1.500;2023-07-31T12:39:14;99003.66;;;26.70;53.58
81897;BME280;71360;43.506;1.500;2023-07-31T12:41:40;98995.44;;;26.70;53.73
81897;BME280;71360;43.506;1.500;2023-07-31T12:44:05;99003.66;;;26.70;54.23
81897;BME280;71360;43.506;1.500;2023-07-31T12:46:30;98998.16;;;26.70;53.24
81897;BME280;71360;43.506;1.500;2023-07-31T12:48:56;98994.41;;;26.71;54.14
81897;BME280;71360;43.506;1.500;2023-07-31T12:51:21;98992.69;;;26.70;54.11
81897;BME280;71360;43.506;1.500;2023-07-31T12:53:47;98989.94;;;26.70;53.67
81897;BME280;71360;43.506;1.500;2023-07-31T12:56:12;98988.03;;;26.71;53.98
81897;BME280;71360;43.506;1.500;2023-07-31T12:58:38;98986.16;;;26.71;53.63
81897;BME280;71360;43.506;1.500;2023-07-31T13:01:03;98993.38;;;26.72;53.31
81897;BME280;71360;43.506;1.500;2023-07-31T13:03:29;98981.53;;;26.72;53.23
81897;BME280;71360;43.506;1.500;2023-07-31T13:05:54;98981.53;;;26.72;53.44